Time;durP1;ratioP1;P1;durP2;ratioP2;P2;SDS_P1;SDS_P2;PMS_P1;PMS_P2;Temp;Humidity;BMP_temperature;BMP_pressure;BME280_temperature;BME280_humidity;BME280_pressure;Samples;Min_cycle;Max_cycle;Signal;HPM_P1;HPM_P2
2022/06/26 00:00:45;;;;;;;1.48;0.98;;;;;;;;;;5071950;28;20400;-82
2022/06/26 00:03:12;;;;;;;1.10;1.00;;;;;;;;;;5069558;28;20384;-79
2022/06/26 00:05:38;;;;;;;0.90;0.80;;;;;;;;;;5052463;28;20385;-79
2022/06/26 00:08:04;;;;;;;1.98;1.00;;;;;;;;;;5072152;28;20415;-80
2022/06/26 00:10:30;;;;;;;1.17;1.07;;;;;;;;;;5071925;28;20392;-81
2022/06/26 00:12:56;;;;;;;0.90;0.70;;;;;;;;;;5072062;28;20391;-81
2022/06/26 00:15:22;;;;;;;1.38;0.90;;;;;;;;;;5072282;28;20419;-80
2022/06/26 00:17:48;;;;;;;2.13;1.10;;;;;;;;;;5072127;28;20395;-80
2022/06/26 00:20:14;;;;;;;1.73;1.10;;;;;;;;;;5071888;28;20376;-80
2022/06/26 00:22:41;;;;;;;2.30;0.90;;;;;;;;;;5072034;28;20743;-80
2022/06/26 00:25:08;;;;;;;0.90;0.82;;;;;;;;;;5056908;28;20375;-81
2022/06/26 00:27:34;;;;;;;1.15;0.90;;;;;;;;;;5071966;28;20375;-81
2022/06/26 00:30:01;;;;;;;1.35;0.80;;;;;;;;;;5071967;28;20375;-81
2022/06/26 00:32:27;;;;;;;1.10;1.00;;;;;;;;;;5071877;28;20394;-81
2022/06/26 00:34:53;;;;;;;1.47;1.07;;;;;;;;;;5055842;28;20393;-81
2022/06/26 00:37:19;;;;;;;0.95;0.85;;;;;;;;;;5047238;28;20409;-81
2022/06/26 00:39:45;;;;;;;1.67;0.80;;;;;;;;;;5062351;28;20384;-81
2022/06/26 00:42:11;;;;;;;1.35;0.90;;;;;;;;;;5070089;28;20426;-81
2022/06/26 00:44:37;;;;;;;3.50;0.85;;;;;;;;;;5057110;28;20385;-81
2022/06/26 00:47:03;;;;;;;1.00;0.90;;;;;;;;;;5065520;28;20386;-81
2022/06/26 00:49:29;;;;;;;1.50;0.80;;;;;;;;;;5069660;28;20388;-81
2022/06/26 00:51:55;;;;;;;0.80;0.60;;;;;;;;;;5069753;28;20387;-81
2022/06/26 00:54:24;;;;;;;1.67;1.00;;;;;;;;;;5067927;28;20758;-81
2022/06/26 00:56:51;;;;;;;1.10;1.00;;;;;;;;;;5066464;28;20411;-81
2022/06/26 00:59:17;;;;;;;1.15;0.90;;;;;;;;;;5075404;28;20379;-81
2022/06/26 01:01:43;;;;;;;1.70;0.87;;;;;;;;;;5074363;28;20387;-81
2022/06/26 01:04:09;;;;;;;1.80;1.00;;;;;;;;;;5064772;28;20515;-81
2022/06/26 01:06:35;;;;;;;1.13;0.93;;;;;;;;;;5063915;28;20432;-81
2022/06/26 01:09:02;;;;;;;3.80;1.10;;;;;;;;;;5074944;28;20409;-81
2022/06/26 01:11:29;;;;;;;3.40;0.93;;;;;;;;;;5075059;28;20384;-81
2022/06/26 01:13:57;;;;;;;2.00;1.00;;;;;;;;;;5075134;28;20380;-81
2022/06/26 01:16:24;;;;;;;2.97;1.20;;;;;;;;;;5074946;28;20839;-81
2022/06/26 01:18:51;;;;;;;2.40;1.20;;;;;;;;;;5075083;28;20445;-81
2022/06/26 01:21:17;;;;;;;2.30;1.30;;;;;;;;;;5075271;28;20455;-81
2022/06/26 01:23:44;;;;;;;2.55;1.10;;;;;;;;;;5074927;28;20463;-81
2022/06/26 01:26:10;;;;;;;1.67;1.00;;;;;;;;;;5074736;28;20383;-81
2022/06/26 01:28:36;;;;;;;1.73;0.88;;;;;;;;;;5074914;28;20441;-81
2022/06/26 01:31:02;;;;;;;1.03;0.80;;;;;;;;;;5074693;28;20380;-81
2022/06/26 01:33:28;;;;;;;2.10;1.00;;;;;;;;;;5069836;28;20397;-81
2022/06/26 01:35:54;;;;;;;2.53;1.10;;;;;;;;;;5062727;28;20491;-81
2022/06/26 01:38:21;;;;;;;2.15;0.90;;;;;;;;;;5074562;28;20451;-81
2022/06/26 01:40:48;;;;;;;1.48;0.80;;;;;;;;;;5074471;28;20376;-81
2022/06/26 01:43:14;;;;;;;1.10;0.88;;;;;;;;;;5074634;28;20448;-81
2022/06/26 01:45:41;;;;;;;1.67;1.00;;;;;;;;;;5074485;28;20391;-81
2022/06/26 01:48:07;;;;;;;1.42;0.90;;;;;;;;;;5074541;28;20376;-81
2022/06/26 01:50:33;;;;;;;1.30;0.98;;;;;;;;;;5074328;28;20383;-81
2022/06/26 01:52:59;;;;;;;1.52;0.95;;;;;;;;;;5073134;28;20395;-81
2022/06/26 01:55:25;;;;;;;1.57;0.90;;;;;;;;;;5054578;28;20421;-81
2022/06/26 01:57:51;;;;;;;2.58;1.20;;;;;;;;;;5053593;28;20446;-81
2022/06/26 02:00:17;;;;;;;1.60;1.10;;;;;;;;;;5052870;28;20863;-82
2022/06/26 02:02:43;;;;;;;1.15;0.90;;;;;;;;;;5056380;28;20406;-82
2022/06/26 02:05:10;;;;;;;1.27;0.93;;;;;;;;;;5052122;28;20907;-82
2022/06/26 02:07:36;;;;;;;1.35;0.93;;;;;;;;;;5069073;28;20400;-82
2022/06/26 02:15:31;;;;;;;1.40;0.70;;;;;;;;;;5071916;28;20458;-82
2022/06/26 02:17:57;;;;;;;1.75;1.02;;;;;;;;;;5066925;28;20407;-81
2022/06/26 02:20:23;;;;;;;1.20;1.02;;;;;;;;;;5072977;28;20376;-82
2022/06/26 02:22:49;;;;;;;0.88;0.80;;;;;;;;;;5073793;28;20399;-82
2022/06/26 02:25:15;;;;;;;0.80;0.70;;;;;;;;;;5073595;28;20852;-82
2022/06/26 02:27:41;;;;;;;2.10;0.90;;;;;;;;;;5073903;28;20379;-82
2022/06/26 02:30:07;;;;;;;1.80;0.90;;;;;;;;;;5073521;28;20372;-82
2022/06/26 02:32:33;;;;;;;1.00;0.80;;;;;;;;;;5073555;28;20372;-82
2022/06/26 02:34:59;;;;;;;1.00;0.87;;;;;;;;;;5056686;28;20392;-82
2022/06/26 02:37:25;;;;;;;1.52;0.60;;;;;;;;;;5073470;28;20412;-82
2022/06/26 02:39:51;;;;;;;0.80;0.70;;;;;;;;;;5073516;28;20372;-82
2022/06/26 02:42:18;;;;;;;0.85;0.77;;;;;;;;;;5071417;28;20744;-82
2022/06/26 02:44:44;;;;;;;0.70;0.70;;;;;;;;;;5058814;28;20457;-82
2022/06/26 02:47:10;;;;;;;1.15;0.70;;;;;;;;;;5070075;28;20380;-82
2022/06/26 02:49:36;;;;;;;2.10;0.90;;;;;;;;;;5073254;28;20918;-82
2022/06/26 02:52:02;;;;;;;1.25;0.70;;;;;;;;;;5073166;28;20478;-82
2022/06/26 02:54:28;;;;;;;0.90;0.70;;;;;;;;;;5065944;28;20878;-82
2022/06/26 02:56:54;;;;;;;0.98;0.70;;;;;;;;;;5065976;28;20442;-82
2022/06/26 02:59:20;;;;;;;1.40;0.77;;;;;;;;;;5073001;28;20491;-82
2022/06/26 03:01:46;;;;;;;0.90;0.68;;;;;;;;;;5072961;28;20864;-81
2022/06/26 03:04:12;;;;;;;1.30;0.73;;;;;;;;;;5062160;28;20460;-81
2022/06/26 03:06:38;;;;;;;0.90;0.80;;;;;;;;;;5061986;28;20380;-81
2022/06/26 03:09:04;;;;;;;0.70;0.70;;;;;;;;;;5072863;28;20375;-81
2022/06/26 03:11:30;;;;;;;1.03;0.70;;;;;;;;;;5072654;28;20485;-82
2022/06/26 03:13:56;;;;;;;1.95;0.90;;;;;;;;;;5072873;28;20406;-81
2022/06/26 03:16:22;;;;;;;1.55;0.70;;;;;;;;;;5072678;28;20483;-81
2022/06/26 03:18:48;;;;;;;2.17;0.70;;;;;;;;;;5072094;28;20376;-81
2022/06/26 03:21:14;;;;;;;1.42;0.70;;;;;;;;;;5072618;28;20901;-81
2022/06/26 03:26:25;;;;;;;1.55;0.70;;;;;;;;;;5072571;28;20378;-81
2022/06/26 03:28:51;;;;;;;0.95;0.70;;;;;;;;;;5072460;28;20376;-81
2022/06/26 03:31:17;;;;;;;1.02;0.70;;;;;;;;;;5071464;28;20406;-81
2022/06/26 03:33:43;;;;;;;2.38;0.90;;;;;;;;;;5065546;28;20386;-81
2022/06/26 03:36:09;;;;;;;0.90;0.80;;;;;;;;;;5062535;28;20453;-81
2022/06/26 03:38:35;;;;;;;0.82;0.60;;;;;;;;;;5072432;28;20798;-81
2022/06/26 03:41:01;;;;;;;1.48;0.88;;;;;;;;;;5072245;28;20450;-81
2022/06/26 03:43:27;;;;;;;1.23;0.90;;;;;;;;;;5072376;28;20810;-81
2022/06/26 03:45:54;;;;;;;1.65;0.80;;;;;;;;;;5072437;28;20372;-81
2022/06/26 03:48:20;;;;;;;2.03;0.80;;;;;;;;;;5072499;28;20380;-81
2022/06/26 03:50:46;;;;;;;4.20;0.70;;;;;;;;;;5072220;28;20872;-81
2022/06/26 03:53:12;;;;;;;0.80;0.80;;;;;;;;;;5072336;28;20409;-81
2022/06/26 03:55:38;;;;;;;1.65;1.00;;;;;;;;;;5063227;28;20417;-81
2022/06/26 03:58:04;;;;;;;1.52;0.90;;;;;;;;;;5064842;28;20376;-81
2022/06/26 04:00:30;;;;;;;1.05;0.80;;;;;;;;;;5071982;28;20753;-81
2022/06/26 04:02:57;;;;;;;1.25;0.80;;;;;;;;;;5071756;28;20379;-82
2022/06/26 04:05:23;;;;;;;1.80;0.85;;;;;;;;;;5052118;28;20450;-81
2022/06/26 04:07:49;;;;;;;1.25;0.82;;;;;;;;;;5070834;28;20368;-81
2022/06/26 04:10:15;;;;;;;0.80;0.80;;;;;;;;;;5071971;28;20399;-81
2022/06/26 04:12:41;;;;;;;1.08;0.70;;;;;;;;;;5072155;28;20415;-81
2022/06/26 04:15:07;;;;;;;2.22;0.90;;;;;;;;;;5072057;28;20375;-81
2022/06/26 04:17:33;;;;;;;1.05;0.70;;;;;;;;;;5072118;28;20478;-81
2022/06/26 04:19:59;;;;;;;1.00;0.90;;;;;;;;;;5064036;28;20483;-81
2022/06/26 04:22:25;;;;;;;1.08;0.80;;;;;;;;;;5061219;28;20391;-82
2022/06/26 04:24:51;;;;;;;1.13;0.88;;;;;;;;;;5070458;28;20387;-81
2022/06/26 04:27:18;;;;;;;3.15;0.80;;;;;;;;;;5071959;28;20380;-81
2022/06/26 04:29:44;;;;;;;1.90;0.77;;;;;;;;;;5074617;28;20902;-82
2022/06/26 04:32:10;;;;;;;1.88;1.00;;;;;;;;;;5075918;28;20916;-81
2022/06/26 04:34:36;;;;;;;0.77;0.73;;;;;;;;;;5061606;28;20475;-81
2022/06/26 04:37:02;;;;;;;1.88;0.90;;;;;;;;;;5056274;28;20409;-81
2022/06/26 04:39:28;;;;;;;2.03;0.83;;;;;;;;;;5065029;28;20376;-81
2022/06/26 04:41:54;;;;;;;1.30;0.90;;;;;;;;;;5075692;28;20372;-81
2022/06/26 04:44:20;;;;;;;1.73;0.90;;;;;;;;;;5068750;28;20915;-81
2022/06/26 04:46:49;;;;;;;1.00;0.90;;;;;;;;;;5075741;28;20379;-81
2022/06/26 04:49:15;;;;;;;0.80;0.80;;;;;;;;;;5064451;28;20387;-81
2022/06/26 04:51:41;;;;;;;1.50;0.90;;;;;;;;;;5075468;28;20428;-82
2022/06/26 04:54:08;;;;;;;1.45;0.90;;;;;;;;;;5067340;28;20415;-82
2022/06/26 04:56:34;;;;;;;1.50;0.93;;;;;;;;;;5059487;28;20483;-82
2022/06/26 04:59:01;;;;;;;1.40;0.80;;;;;;;;;;5071666;28;20376;-82
2022/06/26 05:01:27;;;;;;;1.75;0.90;;;;;;;;;;5068229;28;20415;-82
2022/06/26 05:03:53;;;;;;;1.30;0.95;;;;;;;;;;5075500;28;20391;-82
2022/06/26 05:06:19;;;;;;;1.33;1.00;;;;;;;;;;5075216;28;20375;-82
2022/06/26 05:08:46;;;;;;;3.25;1.10;;;;;;;;;;5075312;28;20468;-82
2022/06/26 05:11:12;;;;;;;1.58;1.08;;;;;;;;;;5074858;28;20387;-82
2022/06/26 05:13:38;;;;;;;2.03;1.33;;;;;;;;;;5075523;28;20380;-82
2022/06/26 05:16:04;;;;;;;3.65;1.67;;;;;;;;;;5075319;28;20420;-81
2022/06/26 05:18:30;;;;;;;2.00;1.50;;;;;;;;;;5074981;28;20376;-82
2022/06/26 05:20:56;;;;;;;3.40;2.50;;;;;;;;;;5075621;28;20808;-82
2022/06/26 05:23:22;;;;;;;2.45;2.10;;;;;;;;;;5074797;28;20376;-82
2022/06/26 05:25:49;;;;;;;2.33;2.10;;;;;;;;;;5075048;28;20406;-82
2022/06/26 05:28:15;;;;;;;3.90;1.60;;;;;;;;;;5075051;28;20386;-82
2022/06/26 05:30:41;;;;;;;2.42;1.77;;;;;;;;;;5073819;28;20388;-82
2022/06/26 05:33:07;;;;;;;2.00;1.65;;;;;;;;;;5073398;28;20400;-82
2022/06/26 05:35:34;;;;;;;2.10;1.35;;;;;;;;;;5074672;28;20384;-82
2022/06/26 05:38:00;;;;;;;2.85;1.80;;;;;;;;;;5074912;28;20394;-82
2022/06/26 05:40:26;;;;;;;1.80;1.20;;;;;;;;;;5073702;28;20424;-82
2022/06/26 05:42:55;;;;;;;1.73;1.47;;;;;;;;;;5074787;28;20408;-82
2022/06/26 05:45:21;;;;;;;1.48;1.38;;;;;;;;;;5074590;28;20384;-82
2022/06/26 05:47:47;;;;;;;2.60;1.67;;;;;;;;;;5074983;28;20376;-82
2022/06/26 05:50:13;;;;;;;2.20;1.63;;;;;;;;;;5072613;28;20441;-82
2022/06/26 05:52:39;;;;;;;2.60;1.60;;;;;;;;;;5057112;28;20411;-82
2022/06/26 05:55:06;;;;;;;1.73;1.45;;;;;;;;;;5066311;28;20417;-82
2022/06/26 05:57:32;;;;;;;2.07;1.23;;;;;;;;;;5072500;28;20461;-82
2022/06/26 05:59:58;;;;;;;3.25;1.30;;;;;;;;;;5072022;28;20800;-83
2022/06/26 06:02:24;;;;;;;2.25;1.13;;;;;;;;;;5061706;28;20385;-82
2022/06/26 06:04:50;;;;;;;2.20;1.00;;;;;;;;;;5067395;28;20378;-83
2022/06/26 06:07:16;;;;;;;1.50;1.10;;;;;;;;;;5054164;28;20381;-82
2022/06/26 06:09:42;;;;;;;1.27;1.00;;;;;;;;;;5058351;28;20859;-83
2022/06/26 06:12:09;;;;;;;4.80;1.08;;;;;;;;;;5062383;28;20383;-83
2022/06/26 06:14:38;;;;;;;1.10;1.00;;;;;;;;;;5073944;28;20476;-83
2022/06/26 06:19:48;;;;;;;2.13;0.60;;;;;;;;;;5067475;28;20393;-82
2022/06/26 06:22:14;;;;;;;1.25;0.80;;;;;;;;;;5053984;28;20369;-81
2022/06/26 06:24:40;;;;;;;0.93;0.70;;;;;;;;;;5067462;28;20849;-81
2022/06/26 06:27:06;;;;;;;2.15;1.00;;;;;;;;;;5073710;28;20379;-81
2022/06/26 06:29:32;;;;;;;1.50;0.83;;;;;;;;;;5061739;28;20758;-82
2022/06/26 06:31:58;;;;;;;1.63;0.80;;;;;;;;;;5057909;28;20391;-83
2022/06/26 06:34:24;;;;;;;1.30;0.98;;;;;;;;;;5073629;28;20375;-82
2022/06/26 06:36:50;;;;;;;1.02;0.80;;;;;;;;;;5071810;28;20885;-81
2022/06/26 06:39:16;;;;;;;1.50;0.90;;;;;;;;;;5061881;28;20386;-81
2022/06/26 06:41:42;;;;;;;1.42;0.85;;;;;;;;;;5073789;28;20368;-83
2022/06/26 06:44:08;;;;;;;3.58;0.85;;;;;;;;;;5073379;28;20379;-84
2022/06/26 06:46:34;;;;;;;1.10;0.80;;;;;;;;;;5073393;28;20372;-84
2022/06/26 06:49:00;;;;;;;0.80;0.70;;;;;;;;;;5073572;28;20436;-83
2022/06/26 06:51:26;;;;;;;0.70;0.63;;;;;;;;;;5053284;28;20377;-82
2022/06/26 06:53:52;;;;;;;2.83;0.80;;;;;;;;;;5068504;28;20387;-81
2022/06/26 06:56:18;;;;;;;1.10;0.80;;;;;;;;;;5064385;28;20408;-82
2022/06/26 06:58:44;;;;;;;1.25;0.70;;;;;;;;;;5071464;28;20376;-82
2022/06/26 07:01:10;;;;;;;0.77;0.68;;;;;;;;;;5070237;28;20396;-83
2022/06/26 07:03:36;;;;;;;1.55;0.50;;;;;;;;;;5053867;28;20378;-83
2022/06/26 07:06:02;;;;;;;0.50;0.50;;;;;;;;;;5071113;28;20379;-83
2022/06/26 07:08:28;;;;;;;1.50;0.57;;;;;;;;;;5072899;28;20384;-82
2022/06/26 07:10:54;;;;;;;0.85;0.50;;;;;;;;;;5063488;28;20389;-81
2022/06/26 07:13:20;;;;;;;0.75;0.60;;;;;;;;;;5048037;28;20435;-81
2022/06/26 07:15:47;;;;;;;1.30;0.73;;;;;;;;;;5062803;28;20412;-82
2022/06/26 07:18:13;;;;;;;0.50;0.50;;;;;;;;;;5071404;28;20376;-82
2022/06/26 07:20:39;;;;;;;0.70;0.70;;;;;;;;;;5059260;28;20474;-82
2022/06/26 07:23:05;;;;;;;1.27;0.80;;;;;;;;;;5054121;28;20807;-82
2022/06/26 07:25:31;;;;;;;0.75;0.75;;;;;;;;;;5052607;28;20425;-82
2022/06/26 07:27:57;;;;;;;0.60;0.50;;;;;;;;;;5050517;28;20422;-82
2022/06/26 07:30:23;;;;;;;0.98;0.50;;;;;;;;;;5057451;28;20451;-82
2022/06/26 07:32:49;;;;;;;0.70;0.50;;;;;;;;;;5052919;28;20528;-82
2022/06/26 07:35:15;;;;;;;1.25;0.32;;;;;;;;;;5051282;28;20465;-82
2022/06/26 07:37:41;;;;;;;0.60;0.50;;;;;;;;;;5047158;28;20401;-81
2022/06/26 07:40:07;;;;;;;2.08;0.50;;;;;;;;;;5067295;28;20458;-81
2022/06/26 07:42:33;;;;;;;0.63;0.47;;;;;;;;;;5072608;28;20387;-80
2022/06/26 07:44:59;;;;;;;0.60;0.50;;;;;;;;;;5071129;28;20455;-80
2022/06/26 07:47:25;;;;;;;1.33;0.60;;;;;;;;;;5072444;28;20422;-80
2022/06/26 07:49:51;;;;;;;0.82;0.50;;;;;;;;;;5066709;28;20386;-80
2022/06/26 07:52:17;;;;;;;0.90;0.50;;;;;;;;;;5053606;28;20391;-82
2022/06/26 07:54:43;;;;;;;0.90;0.60;;;;;;;;;;5048241;28;20387;-81
2022/06/26 07:57:09;;;;;;;0.80;0.52;;;;;;;;;;5051832;28;20902;-80
2022/06/26 07:59:35;;;;;;;0.50;0.50;;;;;;;;;;5048778;28;20878;-81
2022/06/26 08:02:01;;;;;;;1.52;0.63;;;;;;;;;;5052667;28;20373;-80
2022/06/26 08:04:27;;;;;;;0.60;0.40;;;;;;;;;;5050969;28;20471;-81
2022/06/26 08:06:53;;;;;;;0.57;0.50;;;;;;;;;;5052203;28;20436;-81
2022/06/26 08:09:19;;;;;;;0.70;0.35;;;;;;;;;;5044223;28;20392;-81
2022/06/26 08:11:45;;;;;;;0.55;0.45;;;;;;;;;;5057941;28;20406;-80
2022/06/26 08:14:11;;;;;;;0.50;0.40;;;;;;;;;;5070800;28;20796;-81
2022/06/26 08:16:37;;;;;;;0.50;0.47;;;;;;;;;;5071906;28;20400;-80
2022/06/26 08:19:03;;;;;;;0.70;0.40;;;;;;;;;;5070850;28;20376;-80
2022/06/26 08:24:14;;;;;;;0.82;0.57;;;;;;;;;;5072411;28;20429;-80
2022/06/26 08:26:40;;;;;;;1.35;0.32;;;;;;;;;;5066694;28;20399;-80
2022/06/26 08:29:06;;;;;;;1.10;0.40;;;;;;;;;;5044064;28;20430;-79
2022/06/26 08:31:32;;;;;;;1.60;0.50;;;;;;;;;;5056440;28;20836;-79
2022/06/26 08:33:58;;;;;;;1.15;0.40;;;;;;;;;;5070888;28;20398;-79
2022/06/26 08:36:24;;;;;;;0.45;0.45;;;;;;;;;;5042959;28;20430;-80
2022/06/26 08:38:50;;;;;;;0.60;0.40;;;;;;;;;;5048572;28;20392;-80
2022/06/26 08:41:17;;;;;;;0.60;0.50;;;;;;;;;;5045101;28;20383;-80
2022/06/26 08:43:44;;;;;;;0.90;0.40;;;;;;;;;;5064588;28;20726;-80
2022/06/26 08:46:10;;;;;;;0.43;0.43;;;;;;;;;;5060891;28;20392;-80
2022/06/26 08:48:42;;;;;;;0.50;0.40;;;;;;;;;;5057198;28;20393;-80
2022/06/26 08:51:09;;;;;;;0.40;0.40;;;;;;;;;;5063637;28;20466;-79
2022/06/26 08:53:35;;;;;;;0.40;0.40;;;;;;;;;;5071739;28;20450;-82
2022/06/26 08:56:02;;;;;;;0.80;0.40;;;;;;;;;;5056289;28;20412;-80
2022/06/26 08:58:28;;;;;;;0.57;0.40;;;;;;;;;;5063815;28;20388;-80
2022/06/26 09:00:54;;;;;;;0.80;0.40;;;;;;;;;;5070113;28;20392;-82
2022/06/26 09:03:20;;;;;;;0.60;0.40;;;;;;;;;;5061065;28;20873;-81
2022/06/26 09:05:46;;;;;;;0.63;0.40;;;;;;;;;;5048164;28;20394;-81
2022/06/26 09:08:19;;;;;;;0.55;0.55;;;;;;;;;;5055305;28;20406;-80
2022/06/26 09:10:46;;;;;;;1.00;0.40;;;;;;;;;;5061341;28;20380;-81
2022/06/26 09:13:13;;;;;;;0.50;0.40;;;;;;;;;;5051018;28;20471;-81
2022/06/26 09:15:40;;;;;;;0.43;0.30;;;;;;;;;;5055206;28;20393;-81
2022/06/26 09:18:07;;;;;;;0.35;0.30;;;;;;;;;;5047070;28;20409;-82
2022/06/26 09:20:36;;;;;;;0.85;0.30;;;;;;;;;;5053984;28;20931;-82
2022/06/26 09:23:03;;;;;;;0.40;0.40;;;;;;;;;;5067880;28;20383;-81
2022/06/26 09:25:35;;;;;;;0.70;0.40;;;;;;;;;;5073288;28;20445;-81
2022/06/26 09:28:09;;;;;;;0.73;0.40;;;;;;;;;;5066259;28;20406;-81
2022/06/26 09:30:45;;;;;;;1.10;0.40;;;;;;;;;;5060123;28;20401;-81
2022/06/26 09:33:11;;;;;;;0.50;0.40;;;;;;;;;;5073649;28;20380;-81
2022/06/26 09:35:37;;;;;;;0.40;0.38;;;;;;;;;;5067683;28;20380;-81
2022/06/26 09:38:04;;;;;;;0.32;0.30;;;;;;;;;;5059792;28;20791;-81
2022/06/26 09:40:30;;;;;;;0.55;0.30;;;;;;;;;;5055509;28;20443;-81
2022/06/26 09:42:56;;;;;;;0.40;0.40;;;;;;;;;;5063088;28;20380;-81
2022/06/26 09:45:22;;;;;;;0.38;0.30;;;;;;;;;;5073071;28;20372;-81
2022/06/26 09:47:49;;;;;;;0.30;0.30;;;;;;;;;;5073358;28;20462;-81
2022/06/26 09:50:15;;;;;;;0.52;0.40;;;;;;;;;;5045376;28;20379;-81
2022/06/26 09:52:42;;;;;;;0.47;0.47;;;;;;;;;;5074569;28;20501;-82
2022/06/26 09:55:09;;;;;;;0.40;0.40;;;;;;;;;;5065910;28;20877;-81
2022/06/26 09:57:36;;;;;;;1.60;0.40;;;;;;;;;;5072885;28;20495;-81
2022/06/26 10:00:04;;;;;;;0.85;0.50;;;;;;;;;;5072930;28;20416;-81
2022/06/26 10:08:05;;;;;;;0.67;0.57;;;;;;;;;;5074384;28;20395;-81
2022/06/26 10:10:32;;;;;;;0.53;0.47;;;;;;;;;;5065039;28;20377;-81
2022/06/26 10:13:04;;;;;;;0.65;0.50;;;;;;;;;;5055291;28;20739;-81
2022/06/26 10:15:36;;;;;;;1.77;0.50;;;;;;;;;;5072747;28;20467;-81
2022/06/26 10:18:14;;;;;;;1.10;0.50;;;;;;;;;;5072933;28;20936;-81
2022/06/26 10:20:41;;;;;;;0.98;0.80;;;;;;;;;;5073856;28;20387;-81
2022/06/26 10:23:07;;;;;;;0.90;0.40;;;;;;;;;;5073902;28;20383;-81
2022/06/26 10:25:34;;;;;;;0.80;0.40;;;;;;;;;;5072782;28;20384;-81
2022/06/26 10:28:00;;;;;;;0.63;0.50;;;;;;;;;;5073622;28;20376;-81
2022/06/26 10:30:27;;;;;;;0.90;0.32;;;;;;;;;;5073571;28;20376;-81
2022/06/26 10:33:29;;;;;;;0.68;0.30;;;;;;;;;;5062259;28;20899;-81
2022/06/26 10:35:57;;;;;;;0.40;0.38;;;;;;;;;;5008511;28;20435;-81
2022/06/26 10:38:24;;;;;;;0.50;0.40;;;;;;;;;;5060361;28;20402;-81
2022/06/26 10:43:52;;;;;;;0.40;0.30;;;;;;;;;;5073481;28;20407;-81
2022/06/26 10:46:21;;;;;;;0.50;0.40;;;;;;;;;;5070986;28;20387;-81
2022/06/26 10:48:51;;;;;;;0.98;0.40;;;;;;;;;;5055462;28;20468;-81
2022/06/26 10:51:24;;;;;;;0.98;0.50;;;;;;;;;;5073264;28;20376;-81
2022/06/26 10:53:50;;;;;;;1.60;0.50;;;;;;;;;;5068676;28;20500;-82
2022/06/26 10:56:16;;;;;;;0.90;0.30;;;;;;;;;;5063195;28;20399;-81
2022/06/26 10:58:46;;;;;;;0.70;0.30;;;;;;;;;;5059589;28;20381;-82
2022/06/26 11:01:13;;;;;;;1.25;0.30;;;;;;;;;;5056562;28;20395;-82
2022/06/26 11:03:39;;;;;;;0.33;0.33;;;;;;;;;;5073140;28;20466;-82
2022/06/26 11:06:13;;;;;;;0.60;0.30;;;;;;;;;;5072974;28;20384;-82
2022/06/26 11:08:47;;;;;;;0.40;0.40;;;;;;;;;;5072978;28;20383;-82
2022/06/26 11:11:15;;;;;;;0.60;0.20;;;;;;;;;;5072755;28;20514;-82
2022/06/26 11:13:51;;;;;;;0.40;0.40;;;;;;;;;;5073159;28;20430;-82
2022/06/26 11:16:17;;;;;;;0.88;0.47;;;;;;;;;;5060993;28;20407;-82
2022/06/26 11:18:43;;;;;;;0.60;0.35;;;;;;;;;;5072894;28;20379;-82
2022/06/26 11:21:09;;;;;;;0.45;0.30;;;;;;;;;;5071477;28;20376;-82
2022/06/26 11:23:36;;;;;;;0.90;0.30;;;;;;;;;;5071724;28;20388;-82
2022/06/26 11:26:06;;;;;;;0.30;0.30;;;;;;;;;;5062731;28;20423;-82
2022/06/26 11:28:38;;;;;;;0.40;0.30;;;;;;;;;;5065247;28;20472;-82
2022/06/26 11:31:06;;;;;;;0.57;0.30;;;;;;;;;;5051054;28;20862;-81
2022/06/26 11:33:33;;;;;;;0.95;0.40;;;;;;;;;;5045564;28;20385;-82
2022/06/26 11:36:06;;;;;;;0.50;0.37;;;;;;;;;;5058736;28;20403;-81
2022/06/26 11:38:33;;;;;;;0.40;0.40;;;;;;;;;;5072008;28;20868;-82
2022/06/26 11:41:00;;;;;;;0.43;0.30;;;;;;;;;;5058299;28;20380;-82
2022/06/26 11:43:26;;;;;;;0.60;0.40;;;;;;;;;;5076117;28;20383;-82
2022/06/26 11:45:53;;;;;;;0.30;0.30;;;;;;;;;;5072520;28;20468;-82
2022/06/26 11:48:19;;;;;;;0.40;0.30;;;;;;;;;;5069323;28;20384;-82
2022/06/26 11:50:55;;;;;;;0.40;0.40;;;;;;;;;;5070785;28;20737;-82
2022/06/26 11:53:23;;;;;;;0.30;0.30;;;;;;;;;;5072725;28;20372;-82
2022/06/26 11:55:51;;;;;;;1.10;0.32;;;;;;;;;;5063615;28;20476;-83
2022/06/26 11:58:17;;;;;;;1.08;0.40;;;;;;;;;;5072637;28;20425;-83
2022/06/26 12:00:44;;;;;;;0.30;0.30;;;;;;;;;;5071011;28;20396;-82
2022/06/26 12:03:11;;;;;;;0.38;0.20;;;;;;;;;;5053785;28;20413;-82
2022/06/26 12:05:39;;;;;;;0.30;0.30;;;;;;;;;;5049989;28;20429;-82
2022/06/26 12:08:14;;;;;;;0.40;0.28;;;;;;;;;;5059462;28;20853;-84
2022/06/26 12:10:40;;;;;;;0.77;0.35;;;;;;;;;;5062142;28;20380;-83
2022/06/26 12:13:06;;;;;;;0.50;0.50;;;;;;;;;;5069796;28;20990;-83
2022/06/26 12:15:34;;;;;;;0.90;0.40;;;;;;;;;;5060619;28;20459;-86
2022/06/26 12:18:04;;;;;;;0.70;0.40;;;;;;;;;;5057220;28;20371;-89
2022/06/26 12:20:37;;;;;;;0.60;0.50;;;;;;;;;;5059209;28;20376;-88
2022/06/26 12:23:04;;;;;;;0.80;0.50;;;;;;;;;;5071027;28;20386;-86
2022/06/26 12:25:37;;;;;;;0.68;0.40;;;;;;;;;;5059269;28;20766;-86
2022/06/26 12:28:04;;;;;;;1.48;1.33;;;;;;;;;;5057307;28;20368;-85
2022/06/26 12:30:33;;;;;;;4.05;3.75;;;;;;;;;;5070570;28;20388;-85
2022/06/26 12:32:59;;;;;;;1.08;0.50;;;;;;;;;;5053206;28;20439;-84
2022/06/26 12:35:26;;;;;;;2.45;2.25;;;;;;;;;;5051828;28;20743;-86
2022/06/26 12:37:52;;;;;;;2.22;0.50;;;;;;;;;;5050944;28;20408;-85
2022/06/26 12:40:18;;;;;;;0.30;0.30;;;;;;;;;;5047637;28;20428;-86
2022/06/26 12:42:44;;;;;;;1.42;0.45;;;;;;;;;;5037572;28;20868;-80
2022/06/26 12:45:10;;;;;;;0.40;0.40;;;;;;;;;;5044928;28;20392;-80
2022/06/26 12:47:36;;;;;;;0.60;0.50;;;;;;;;;;5071887;28;20384;-79
2022/06/26 12:50:03;;;;;;;0.50;0.40;;;;;;;;;;5059141;28;20413;-80
2022/06/26 12:52:29;;;;;;;0.88;0.40;;;;;;;;;;5074348;28;20395;-79
2022/06/26 12:54:55;;;;;;;0.73;0.40;;;;;;;;;;5065233;28;20381;-80
2022/06/26 12:57:21;;;;;;;0.73;0.50;;;;;;;;;;5055395;28;20402;-80
2022/06/26 12:59:47;;;;;;;0.57;0.40;;;;;;;;;;5065840;28;20393;-79
2022/06/26 13:02:13;;;;;;;0.65;0.55;;;;;;;;;;5059264;28;20389;-79
2022/06/26 13:04:39;;;;;;;0.52;0.50;;;;;;;;;;5064052;28;20429;-80
2022/06/26 13:07:05;;;;;;;1.48;0.45;;;;;;;;;;5061155;28;20375;-80
2022/06/26 13:09:31;;;;;;;0.90;0.40;;;;;;;;;;5068697;28;20893;-80
2022/06/26 13:11:57;;;;;;;0.82;0.38;;;;;;;;;;5057389;28;20382;-84
2022/06/26 13:14:23;;;;;;;1.00;0.40;;;;;;;;;;5053881;28;20387;-84
2022/06/26 13:16:50;;;;;;;0.30;0.30;;;;;;;;;;5052719;28;20417;-85
2022/06/26 13:19:16;;;;;;;0.60;0.50;;;;;;;;;;5057782;28;20385;-85
2022/06/26 13:21:43;;;;;;;0.27;0.27;;;;;;;;;;5073716;28;20841;-85
2022/06/26 13:24:09;;;;;;;0.50;0.40;;;;;;;;;;5075248;28;20380;-85
2022/06/26 13:26:35;;;;;;;0.90;0.40;;;;;;;;;;5074836;28;20417;-85
2022/06/26 13:29:01;;;;;;;0.90;0.50;;;;;;;;;;5073739;28;20380;-85
2022/06/26 13:31:28;;;;;;;0.57;0.50;;;;;;;;;;5074236;28;20517;-83
2022/06/26 13:33:54;;;;;;;1.63;0.40;;;;;;;;;;5054517;28;20459;-83
2022/06/26 13:36:20;;;;;;;1.30;0.60;;;;;;;;;;5059003;28;20998;-85
2022/06/26 13:38:46;;;;;;;0.63;0.50;;;;;;;;;;5072692;28;20367;-84
2022/06/26 13:41:13;;;;;;;0.80;0.50;;;;;;;;;;5074568;28;20382;-84
2022/06/26 13:43:39;;;;;;;0.30;0.30;;;;;;;;;;5074634;28;20387;-84
2022/06/26 13:46:05;;;;;;;0.80;0.40;;;;;;;;;;5074667;28;20428;-85
2022/06/26 13:48:33;;;;;;;0.40;0.40;;;;;;;;;;5057057;28;20760;-84
2022/06/26 13:50:59;;;;;;;0.40;0.40;;;;;;;;;;5074548;28;20380;-84
2022/06/26 13:53:25;;;;;;;0.50;0.40;;;;;;;;;;5073309;28;20407;-84
2022/06/26 13:55:51;;;;;;;0.60;0.40;;;;;;;;;;5065825;28;20457;-84
2022/06/26 13:58:17;;;;;;;0.50;0.50;;;;;;;;;;5073273;28;20372;-84
2022/06/26 14:00:43;;;;;;;0.80;0.50;;;;;;;;;;5073238;28;20423;-85
2022/06/26 14:03:09;;;;;;;0.40;0.38;;;;;;;;;;5072567;28;20391;-84
2022/06/26 14:05:35;;;;;;;0.70;0.50;;;;;;;;;;5072941;28;20733;-85
2022/06/26 14:08:01;;;;;;;1.58;0.45;;;;;;;;;;5067871;28;20384;-84
2022/06/26 14:10:28;;;;;;;1.02;0.57;;;;;;;;;;5056411;28;20854;-84
2022/06/26 14:12:54;;;;;;;0.65;0.40;;;;;;;;;;5053602;28;20385;-84
2022/06/26 14:15:20;;;;;;;1.08;0.50;;;;;;;;;;5074495;28;20433;-85
2022/06/26 14:17:46;;;;;;;0.60;0.50;;;;;;;;;;5072745;28;20457;-84
2022/06/26 14:20:12;;;;;;;0.50;0.47;;;;;;;;;;5072650;28;20888;-84
2022/06/26 14:28:08;;;;;;;1.27;0.50;;;;;;;;;;5073806;28;20418;-84
2022/06/26 14:30:34;;;;;;;0.43;0.40;;;;;;;;;;5072842;28;20375;-84
2022/06/26 14:33:00;;;;;;;0.80;0.60;;;;;;;;;;5062726;28;20378;-84
2022/06/26 14:35:26;;;;;;;1.25;0.80;;;;;;;;;;5070606;28;20845;-84
2022/06/26 14:37:52;;;;;;;0.90;0.65;;;;;;;;;;5062766;28;20450;-84
2022/06/26 14:40:18;;;;;;;0.45;0.40;;;;;;;;;;5060221;28;20382;-84
2022/06/26 14:42:44;;;;;;;0.60;0.50;;;;;;;;;;5052943;28;20420;-84
2022/06/26 14:45:11;;;;;;;0.55;0.50;;;;;;;;;;5050645;28;20756;-83
2022/06/26 14:47:37;;;;;;;0.83;0.40;;;;;;;;;;5053103;28;20904;-84
2022/06/26 14:50:03;;;;;;;0.50;0.50;;;;;;;;;;5064859;28;20391;-83
2022/06/26 14:52:30;;;;;;;0.60;0.50;;;;;;;;;;5073353;28;20726;-84
2022/06/26 14:54:56;;;;;;;1.35;0.50;;;;;;;;;;5068475;28;20459;-83
2022/06/26 14:57:22;;;;;;;0.68;0.50;;;;;;;;;;5069753;28;20407;-84
2022/06/26 14:59:48;;;;;;;0.77;0.50;;;;;;;;;;5066837;28;20404;-84
2022/06/26 15:02:14;;;;;;;0.95;0.60;;;;;;;;;;5060894;28;20856;-84
2022/06/26 15:04:40;;;;;;;0.88;0.50;;;;;;;;;;5073117;28;20567;-84
2022/06/26 15:07:06;;;;;;;1.13;0.50;;;;;;;;;;5064448;28;20386;-84